Main page
METAR-TAF:

METAR-TAF

Airports :

Houston Southwest Airport

Houston, Texas, United States

latitude: 29-30-22N, longitude: 095-28-37W, elevation: 69 ft

Current weather observation

The report was made 28 minutes ago, at 22:35 UTC
Wind 6 mph from the North
Temperature 73°F
Humidity 44%
Pressure 29.71 in. Hg
Visibility: 10 miles
Scattered clouds at a height of 2800 ft
Broken clouds at a height of 3900 ft

METAR: KAXH 252235Z AUTO 36005KT 10SM SCT028 BKN039 23/10 A2971 RMK AO2 T02320098

Time: 16:03 (23:03 UTC)


TAF: missing

Weather observations and forecasts of more than 4000 airports (METAR and TAF reports).

The available stations are represented by yellow and red dots on the map.

Hover mouse over dot to see the name of the station.

Then click to see weather observations and forecasts.

To change the map : click on the green buttons with a black cross to zoom in, on the green button with a dash to zoom out, or on the green arrows for adjacent maps.


METAR-TAF: